Time;durP1;ratioP1;P1;durP2;ratioP2;P2;SDS_P1;SDS_P2;PMS_P1;PMS_P2;Temp;Humidity;BMP_temperature;BMP_pressure;BME280_temperature;BME280_humidity;BME280_pressure;Samples;Min_cycle;Max_cycle;Signal;HPM_P1;HPM_P2
2022/10/02 00:01:52;;;;;;;4.03;1.60;;;;;;;23.63;46.79;98228.69;5053931;28;20178;-75
2022/10/02 00:04:22;;;;;;;3.42;1.90;;;;;;;23.59;47.05;98230.13;5070820;28;20044;-74
2022/10/02 00:06:48;;;;;;;3.88;1.80;;;;;;;23.53;47.26;98212.34;5054562;28;20123;-74
2022/10/02 00:09:31;;;;;;;3.95;1.60;;;;;;;23.54;47.33;98163.38;5054921;28;20476;-74
2022/10/02 00:11:57;;;;;;;3.17;1.50;;;;;;;23.53;47.75;98147.59;5055538;28;20035;-73
2022/10/02 00:14:23;;;;;;;3.55;1.60;;;;;;;23.53;47.83;98164.41;5037934;28;20119;-75
2022/10/02 00:16:51;;;;;;;3.30;1.80;;;;;;;23.53;48.18;98164.41;5054370;28;20190;-75
2022/10/02 00:19:17;;;;;;;2.85;1.70;;;;;;;23.54;48.38;98159.88;5054921;28;20049;-74
2022/10/02 00:21:43;;;;;;;4.53;1.58;;;;;;;23.53;48.43;98156.41;5054753;28;20028;-74
2022/10/02 00:24:13;;;;;;;6.25;1.83;;;;;;;23.51;48.72;98170.97;5070803;28;20115;-75
2022/10/02 00:26:47;;;;;;;4.00;1.70;;;;;;;23.51;49.16;98162.97;5037779;28;20028;-75
2022/10/02 00:29:23;;;;;;;4.45;1.65;;;;;;;23.46;48.92;98159.09;5072888;28;20543;-75
2022/10/02 00:32:06;;;;;;;4.13;1.50;;;;;;;23.43;49.18;98174.69;5071037;28;20044;-75
2022/10/02 00:34:58;;;;;;;5.85;1.80;;;;;;;23.40;49.23;98154.63;5072243;28;20071;-74
2022/10/02 00:37:38;;;;;;;5.00;1.40;;;;;;;23.39;49.32;98134.38;5056615;28;20031;-74
2022/10/02 00:40:32;;;;;;;4.03;1.50;;;;;;;23.38;49.60;98102.63;5071250;28;20024;-74
2022/10/02 00:43:14;;;;;;;4.43;1.75;;;;;;;23.36;49.54;98096.72;5069905;28;20099;-75
2022/10/02 00:46:18;;;;;;;3.00;1.52;;;;;;;23.34;50.02;98082.78;5037596;28;20021;-74
2022/10/02 00:48:48;;;;;;;4.32;1.50;;;;;;;23.29;49.97;98048.81;4954121;28;20118;-74
2022/10/02 00:51:22;;;;;;;6.95;1.42;;;;;;;23.28;49.71;98026.69;4955465;28;20387;-74
2022/10/02 00:54:06;;;;;;;3.75;1.35;;;;;;;23.33;49.89;98038.56;4939520;28;20094;-75
2022/10/02 00:56:51;;;;;;;6.00;1.58;;;;;;;23.30;50.21;98035.28;4970978;28;20030;-75
2022/10/02 00:59:50;;;;;;;6.75;1.50;;;;;;;23.28;50.40;98042.69;4955010;28;20206;-75
2022/10/02 01:02:30;;;;;;;3.55;1.48;;;;;;;23.27;50.46;98049.03;4963763;28;20070;-75
2022/10/02 01:04:59;;;;;;;4.18;1.63;;;;;;;23.26;50.40;98063.38;4971422;28;20038;-75
2022/10/02 01:07:25;;;;;;;3.67;1.50;;;;;;;23.25;50.22;98058.28;4939452;28;20054;-75
2022/10/02 01:09:51;;;;;;;5.63;1.33;;;;;;;23.22;50.38;98029.41;4956370;28;20035;-74
2022/10/02 01:12:16;;;;;;;3.35;1.60;;;;;;;23.19;50.69;98014.69;4942969;28;20546;-75
2022/10/02 01:14:42;;;;;;;5.32;1.67;;;;;;;23.16;50.79;98031.09;4959217;28;20077;-75
2022/10/02 01:17:28;;;;;;;2.65;1.10;;;;;;;23.12;51.10;98049.34;4959065;28;20137;-74
2022/10/02 01:19:54;;;;;;;3.28;1.23;;;;;;;23.11;51.21;98074.31;4943005;28;20042;-74
2022/10/02 01:22:51;;;;;;;3.20;1.13;;;;;;;23.07;51.00;98088.22;4942888;28;20097;-74
2022/10/02 01:25:17;;;;;;;5.90;1.55;;;;;;;23.07;51.18;98099.72;4987251;28;20037;-74
2022/10/02 01:27:42;;;;;;;3.58;0.93;;;;;;;23.07;51.12;98098.88;5037992;28;20044;-76
2022/10/02 01:30:10;;;;;;;3.20;0.90;;;;;;;23.06;51.16;98098.06;5037875;28;20037;-75
2022/10/02 01:32:39;;;;;;;3.28;1.20;;;;;;;23.08;51.05;98108.53;5038207;28;20037;-74
2022/10/02 01:35:05;;;;;;;3.72;1.13;;;;;;;23.08;51.11;98106.69;5021593;28;20094;-75
2022/10/02 01:37:32;;;;;;;2.55;0.85;;;;;;;23.10;50.95;98122.44;5021637;28;20048;-75
2022/10/02 01:40:00;;;;;;;5.82;1.00;;;;;;;23.07;50.89;98117.50;5021108;28;20043;-75
2022/10/02 01:42:26;;;;;;;2.35;0.70;;;;;;;23.10;50.90;98123.28;5021991;28;20040;-75
2022/10/02 01:44:51;;;;;;;4.25;0.90;;;;;;;23.10;50.88;98122.44;5037477;28;20029;-75
2022/10/02 01:47:28;;;;;;;2.67;0.88;;;;;;;23.08;50.99;98130.66;5037544;28;20028;-75
2022/10/02 01:50:16;;;;;;;2.40;0.85;;;;;;;23.09;51.21;98132.28;5037852;28;20071;-75
2022/10/02 01:52:54;;;;;;;5.57;1.05;;;;;;;23.08;50.94;98122.66;5037601;28;20132;-75
2022/10/02 01:55:34;;;;;;;6.50;0.98;;;;;;;23.06;50.86;98121.22;5021861;28;20565;-75
2022/10/02 01:58:24;;;;;;;2.67;1.00;;;;;;;23.05;51.12;98116.91;5054171;28;20037;-76
2022/10/02 02:01:08;;;;;;;3.85;1.15;;;;;;;23.03;50.92;98126.97;5055440;28;20029;-75
2022/10/02 02:03:47;;;;;;;4.00;0.98;;;;;;;22.99;50.96;98105.25;5055646;28;20123;-75
2022/10/02 02:06:31;;;;;;;5.50;1.35;;;;;;;22.99;51.33;98107.13;5055134;28;20021;-75
2022/10/02 02:09:17;;;;;;;3.42;1.08;;;;;;;22.96;51.26;98095.03;5054498;28;20128;-75
2022/10/02 02:11:50;;;;;;;6.13;1.17;;;;;;;22.94;51.28;98100.59;5022152;28;20071;-75
2022/10/02 02:14:23;;;;;;;3.67;1.00;;;;;;;22.90;51.17;98094.06;5037501;28;20381;-75
2022/10/02 02:16:55;;;;;;;2.15;1.00;;;;;;;22.96;51.22;98097.69;5038059;28;20515;-76
2022/10/02 02:19:32;;;;;;;2.05;1.00;;;;;;;22.97;50.77;98102.00;5037351;28;20025;-76
2022/10/02 02:22:07;;;;;;;2.20;1.13;;;;;;;22.98;50.95;98108.97;5054220;28;20064;-76
2022/10/02 02:24:36;;;;;;;6.63;1.13;;;;;;;22.96;50.85;98129.63;5037165;28;20141;-75
2022/10/02 02:27:02;;;;;;;5.13;1.30;;;;;;;22.99;50.75;98144.38;5053555;28;20035;-75
2022/10/02 02:29:29;;;;;;;3.35;1.20;;;;;;;23.01;50.83;98159.13;5036880;28;20029;-76
2022/10/02 02:31:55;;;;;;;5.40;1.00;;;;;;;22.98;51.05;98164.03;5020295;28;20047;-76
2022/10/02 02:34:22;;;;;;;3.72;1.23;;;;;;;22.98;50.97;98185.31;5053798;28;20029;-75
2022/10/02 02:36:52;;;;;;;1.40;0.97;;;;;;;23.00;51.07;98194.75;5036622;28;20120;-76
2022/10/02 02:39:19;;;;;;;4.88;1.20;;;;;;;23.00;50.80;98201.91;5037102;28;20032;-75
2022/10/02 02:41:47;;;;;;;6.55;1.20;;;;;;;22.96;50.72;98206.81;5037087;28;20037;-76
2022/10/02 02:44:26;;;;;;;5.30;1.45;;;;;;;22.97;50.76;98210.31;5036783;28;20400;-75
2022/10/02 02:47:03;;;;;;;3.88;1.60;;;;;;;22.99;50.97;98211.72;5036696;28;20415;-75
2022/10/02 02:49:51;;;;;;;2.67;1.60;;;;;;;23.02;50.66;98234.44;5034793;28;20079;-75
2022/10/02 02:52:22;;;;;;;4.45;1.60;;;;;;;22.99;50.80;98240.19;5069755;28;20137;-75
2022/10/02 02:54:49;;;;;;;4.55;1.65;;;;;;;22.97;50.79;98240.41;5020500;28;20436;-75
2022/10/02 02:57:16;;;;;;;3.40;1.60;;;;;;;23.02;50.93;98245.09;5036674;28;20025;-75
2022/10/02 02:59:41;;;;;;;6.82;2.00;;;;;;;23.03;50.91;98247.56;5019741;28;20043;-75
2022/10/02 03:02:07;;;;;;;6.40;1.60;;;;;;;23.04;50.62;98251.88;5019718;28;20518;-75
2022/10/02 03:04:32;;;;;;;8.35;1.63;;;;;;;23.06;50.86;98238.34;5019682;28;20037;-76
2022/10/02 03:07:00;;;;;;;8.80;1.77;;;;;;;23.07;50.72;98245.28;5019519;28;20477;-76
2022/10/02 03:09:25;;;;;;;3.90;1.30;;;;;;;23.08;50.75;98262.94;5019912;28;20396;-75
2022/10/02 03:12:18;;;;;;;3.88;1.77;;;;;;;23.09;50.77;98265.38;5036120;28;20041;-76
2022/10/02 03:15:07;;;;;;;5.53;1.55;;;;;;;23.08;51.07;98276.25;5054013;28;20028;-75
2022/10/02 03:17:48;;;;;;;3.58;1.52;;;;;;;23.07;50.77;98255.94;5036382;28;20033;-75
2022/10/02 03:20:24;;;;;;;4.65;1.35;;;;;;;23.02;50.81;98261.06;5020890;28;20064;-75
2022/10/02 03:23:02;;;;;;;3.97;1.30;;;;;;;23.05;50.87;98268.63;5052548;28;20055;-75
2022/10/02 03:25:31;;;;;;;3.45;1.48;;;;;;;23.03;51.20;98268.84;5053822;28;20040;-76
2022/10/02 03:28:02;;;;;;;4.47;1.30;;;;;;;22.99;51.13;98267.63;5054043;28;20087;-75
2022/10/02 03:30:28;;;;;;;3.40;1.33;;;;;;;23.02;51.03;98275.19;5036433;28;20432;-75
2022/10/02 03:32:55;;;;;;;2.88;1.23;;;;;;;23.03;51.01;98268.03;5018638;28;20033;-74
2022/10/02 03:35:21;;;;;;;4.13;1.60;;;;;;;23.02;50.87;98266.41;5019599;28;20037;-74
2022/10/02 03:37:48;;;;;;;4.28;1.17;;;;;;;22.98;51.00;98270.50;5019121;28;20029;-75
2022/10/02 03:40:14;;;;;;;4.05;1.40;;;;;;;23.02;51.02;98271.72;5019110;28;20029;-75
2022/10/02 03:42:40;;;;;;;5.82;1.70;;;;;;;23.02;50.99;98269.06;5052588;28;20090;-75
2022/10/02 03:45:06;;;;;;;4.78;1.20;;;;;;;23.01;51.09;98270.06;5035611;28;20056;-75
2022/10/02 03:47:31;;;;;;;4.32;1.38;;;;;;;22.99;50.84;98264.16;5018949;28;20090;-75
2022/10/02 03:49:57;;;;;;;4.18;1.25;;;;;;;23.02;50.99;98285.03;5035416;28;20032;-74
2022/10/02 03:52:22;;;;;;;7.90;1.85;;;;;;;22.98;50.91;98265.16;5035364;28;20471;-74
2022/10/02 03:54:50;;;;;;;4.38;1.30;;;;;;;22.99;51.16;98259.63;5035120;28;20037;-74
2022/10/02 03:57:20;;;;;;;4.27;1.10;;;;;;;23.00;50.69;98263.94;5035321;28;20477;-75
2022/10/02 04:00:07;;;;;;;3.83;1.20;;;;;;;22.96;50.87;98257.38;5035095;28;20464;-75
2022/10/02 04:02:38;;;;;;;4.18;1.20;;;;;;;22.94;50.48;98276.25;5068555;28;20494;-77
2022/10/02 04:05:11;;;;;;;2.72;0.90;;;;;;;22.92;50.33;98270.31;5068244;28;20029;-78
2022/10/02 04:07:37;;;;;;;2.22;1.10;;;;;;;22.91;50.03;98276.66;5035139;28;20614;-76
2022/10/02 04:10:11;;;;;;;2.35;0.82;;;;;;;22.89;49.69;98268.06;5018581;28;20037;-75
2022/10/02 04:12:39;;;;;;;4.50;0.80;;;;;;;22.86;49.37;98263.16;5068456;28;20044;-75
2022/10/02 04:15:22;;;;;;;3.30;0.70;;;;;;;22.88;49.37;98274.41;5018380;28;20549;-76
2022/10/02 04:17:50;;;;;;;2.42;0.80;;;;;;;22.88;49.01;98274.41;5035935;28;20079;-75
2022/10/02 04:20:20;;;;;;;2.13;0.55;;;;;;;22.88;48.72;98278.91;5034943;28;20025;-76
2022/10/02 04:22:54;;;;;;;2.08;0.80;;;;;;;22.84;48.70;98273.19;5035088;28;20025;-75
2022/10/02 04:25:32;;;;;;;1.27;0.60;;;;;;;22.83;48.61;98295.50;5018638;28;20064;-74
2022/10/02 04:28:03;;;;;;;;;;;;;;;22.90;48.41;98314.13;5018994;28;20056;-75
2022/10/02 04:30:29;;;;;;;2.67;0.60;;;;;;;22.86;47.95;98304.91;5051613;28;20381;-76
2022/10/02 04:33:14;;;;;;;1.70;0.60;;;;;;;22.87;47.97;98309.22;5060566;28;20036;-76
2022/10/02 04:35:57;;;;;;;1.02;0.50;;;;;;;22.91;47.28;98310.44;5028851;28;20119;-77
2022/10/02 04:38:28;;;;;;;1.08;0.40;;;;;;;22.91;46.95;98311.25;5058680;28;20082;-78
2022/10/02 04:41:02;;;;;;;2.67;0.70;;;;;;;22.93;47.17;98311.88;5044870;28;20020;-76
2022/10/02 04:43:36;;;;;;;1.77;0.50;;;;;;;22.94;46.68;98318.84;5060460;28;20055;-76
2022/10/02 04:46:10;;;;;;;2.58;0.43;;;;;;;22.97;46.65;98324.75;5045008;28;20446;-77
2022/10/02 04:48:48;;;;;;;1.30;0.40;;;;;;;22.99;46.48;98331.50;5060346;28;20079;-78
2022/10/02 04:51:22;;;;;;;4.00;0.45;;;;;;;22.97;46.53;98332.75;5060372;28;20109;-76
2022/10/02 04:53:54;;;;;;;0.93;0.40;;;;;;;22.99;46.09;98328.03;5056451;28;20044;-77
2022/10/02 04:56:47;;;;;;;2.25;0.43;;;;;;;23.01;46.00;98336.63;5052635;28;20040;-76
2022/10/02 04:59:28;;;;;;;2.03;0.60;;;;;;;23.05;45.82;98333.34;5019513;28;20116;-77
2022/10/02 05:02:32;;;;;;;1.08;0.85;;;;;;;23.09;45.92;98339.91;5051184;28;20404;-70
2022/10/02 05:05:12;;;;;;;2.58;1.00;;;;;;;23.23;48.27;98342.53;5056933;28;20040;-71
2022/10/02 05:07:47;;;;;;;4.70;0.80;;;;;;;23.34;47.75;98357.06;5043155;28;20056;-71
2022/10/02 05:10:50;;;;;;;4.70;0.77;;;;;;;23.38;47.29;98355.63;5057310;28;20036;-69
2022/10/02 05:13:16;;;;;;;10.35;0.70;;;;;;;23.46;46.15;98352.72;5049338;28;20029;-72
2022/10/02 05:15:44;;;;;;;12.00;0.88;;;;;;;23.48;45.76;98366.66;5042441;28;20052;-67
2022/10/02 05:18:15;;;;;;;;;;;;;;;23.53;44.80;98350.88;5043622;28;20474;-69
2022/10/02 05:21:19;;;;;;;3.88;0.95;;;;;;;23.56;44.42;98358.44;5040719;28;19912;-68
2022/10/02 05:24:02;;;;;;;1.40;0.60;;;;;;;23.65;43.64;98354.50;5006506;28;20041;-68
2022/10/02 05:27:03;;;;;;;9.35;0.60;;;;;;;23.91;42.86;98357.28;5007068;28;20034;-68
2022/10/02 05:29:47;;;;;;;4.88;0.60;;;;;;;25.52;38.98;98355.00;4940273;28;20039;-75
2022/10/02 05:32:30;;;;;;;1.92;0.65;;;;;;;26.55;36.35;98344.38;4940608;29;20048;-75
2022/10/02 05:35:13;;;;;;;1.65;0.80;;;;;;;27.44;34.27;98356.91;4938608;28;20129;-73
2022/10/02 05:37:41;;;;;;;1.15;0.50;;;;;;;28.03;33.10;98343.34;4936523;29;20040;-73
2022/10/02 05:40:10;;;;;;;;;;;;;;;27.60;33.17;98350.81;4940239;29;20027;-72
2022/10/02 05:42:39;;;;;;;2.63;0.60;;;;;;;27.22;33.84;98349.44;4956848;28;20128;-72
2022/10/02 05:45:21;;;;;;;1.50;0.68;;;;;;;26.92;34.29;98364.84;4942838;28;20107;-72
2022/10/02 05:47:47;;;;;;;1.58;0.50;;;;;;;26.74;34.64;98361.22;4943445;28;20107;-71
2022/10/02 05:50:17;;;;;;;2.28;0.50;;;;;;;26.76;34.54;98367.16;4926123;28;20486;-68
2022/10/02 05:53:29;;;;;;;2.85;0.80;;;;;;;26.51;35.33;98367.31;4940664;28;20031;-68
2022/10/02 05:56:26;;;;;;;3.05;0.73;;;;;;;26.47;35.59;98368.81;4923898;29;20035;-68
2022/10/02 05:59:19;;;;;;;2.38;0.80;;;;;;;26.46;36.75;98367.19;4967270;28;20053;-70
2022/10/02 06:01:46;;;;;;;2.72;0.98;;;;;;;26.43;37.63;98368.47;4968217;28;20163;-68
2022/10/02 06:04:22;;;;;;;2.85;0.85;;;;;;;26.38;38.05;98375.53;4947333;28;20046;-65
2022/10/02 06:06:53;;;;;;;3.92;1.00;;;;;;;26.30;37.31;98387.41;4957197;28;20038;-66
2022/10/02 06:09:30;;;;;;;2.70;1.02;;;;;;;26.22;36.99;98382.34;4949575;28;20089;-68
2022/10/02 06:12:37;;;;;;;5.57;1.58;;;;;;;26.81;36.07;98383.34;4949104;28;20046;-73
2022/10/02 06:15:08;;;;;;;8.50;1.60;;;;;;;27.74;34.72;98393.47;4981822;28;20041;-66
2022/10/02 06:17:41;;;;;;;11.80;3.55;;;;;;;28.20;33.75;98380.97;4984197;28;20527;-67
2022/10/02 06:20:36;;;;;;;29.08;8.82;;;;;;;29.33;33.07;98393.53;4984660;28;20050;-67
2022/10/02 06:23:06;;;;;;;13.60;2.67;;;;;;;30.11;31.43;98384.59;4982025;28;20654;-68
2022/10/02 06:25:53;;;;;;;23.95;5.43;;;;;;;30.82;30.50;98394.38;4965464;28;20498;-72
2022/10/02 06:28:48;;;;;;;25.60;5.18;;;;;;;31.55;28.89;98383.84;4957791;28;20076;-69
2022/10/02 06:31:46;;;;;;;5.22;1.55;;;;;;;32.19;27.49;98395.41;4973254;28;20196;-72
2022/10/02 06:34:12;;;;;;;8.75;1.60;;;;;;;32.68;26.34;98393.34;4988147;28;20043;-70
2022/10/02 06:36:43;;;;;;;13.52;2.75;;;;;;;33.16;26.46;98397.38;4952565;28;20038;-69
2022/10/02 06:39:18;;;;;;;7.78;1.27;;;;;;;33.57;25.47;98403.75;4979588;28;20497;-66
2022/10/02 06:41:59;;;;;;;8.20;2.35;;;;;;;33.96;24.78;98390.34;4997941;28;20034;-68
2022/10/02 06:44:36;;;;;;;11.90;3.40;;;;;;;34.34;24.31;98387.97;4943156;28;20081;-67
2022/10/02 06:47:15;;;;;;;4.28;1.55;;;;;;;34.68;23.86;98384.50;4985789;28;20053;-71
2022/10/02 06:49:47;;;;;;;8.30;2.63;;;;;;;35.01;23.18;98386.66;4978742;28;20111;-70
2022/10/02 06:52:30;;;;;;;5.32;1.63;;;;;;;35.28;23.09;98373.38;5015262;28;20191;-72
2022/10/02 06:55:05;;;;;;;4.65;1.67;;;;;;;35.69;22.47;98382.91;4985397;28;20036;-74
2022/10/02 06:57:42;;;;;;;3.90;1.02;;;;;;;36.08;21.65;98408.25;5015813;28;20029;-74
2022/10/02 07:00:11;;;;;;;;;;;;;;;36.44;21.21;98405.06;5005544;28;20068;-71
2022/10/02 07:03:08;;;;;;;7.20;1.20;;;;;;;36.88;21.11;98415.50;5004421;28;20319;-74
2022/10/02 07:05:42;;;;;;;6.05;1.00;;;;;;;37.29;19.93;98417.50;5035341;28;20041;-73
2022/10/02 07:08:40;;;;;;;8.43;1.73;;;;;;;37.72;19.75;98437.38;5060919;28;20028;-72
2022/10/02 07:11:11;;;;;;;3.33;1.30;;;;;;;38.05;20.13;98442.69;5057218;28;20039;-72
2022/10/02 07:13:54;;;;;;;2.70;1.20;;;;;;;38.34;19.23;98440.44;5040732;28;20087;-72
2022/10/02 07:16:37;;;;;;;5.60;1.42;;;;;;;38.59;18.96;98438.22;5048750;28;20114;-72
2022/10/02 07:19:28;;;;;;;4.10;1.35;;;;;;;38.82;18.78;98436.31;5043275;28;20114;-74
2022/10/02 07:22:18;;;;;;;2.50;1.35;;;;;;;39.02;18.46;98447.84;5051514;28;20045;-71
2022/10/02 07:25:06;;;;;;;6.10;1.40;;;;;;;39.20;17.80;98441.38;5042069;28;20068;-72
2022/10/02 07:28:09;;;;;;;2.85;1.20;;;;;;;39.37;17.72;98443.38;5028450;28;20040;-72
2022/10/02 07:30:44;;;;;;;2.92;1.15;;;;;;;39.53;17.94;98443.00;5025076;28;20147;-70
2022/10/02 07:33:28;;;;;;;7.95;1.25;;;;;;;39.34;16.96;98444.00;5016451;28;20075;-71
2022/10/02 07:36:02;;;;;;;4.85;1.80;;;;;;;38.87;17.50;98451.75;5042494;28;20029;-72
2022/10/02 07:38:43;;;;;;;4.57;3.10;;;;;;;38.47;17.22;98455.13;5026137;28;20032;-73
2022/10/02 07:41:11;;;;;;;5.10;3.38;;;;;;;38.06;17.85;98447.84;5039759;28;20041;-73
2022/10/02 07:43:59;;;;;;;9.80;2.10;;;;;;;37.36;17.74;98452.47;5043857;28;20547;-69
2022/10/02 07:46:39;;;;;;;5.82;2.65;;;;;;;37.12;17.84;98458.06;5061637;28;20120;-70
2022/10/02 07:49:31;;;;;;;10.90;4.18;;;;;;;36.89;17.76;98460.59;5060912;28;20123;-71
2022/10/02 07:52:01;;;;;;;14.90;6.07;;;;;;;36.92;17.64;98465.44;5059282;28;20037;-71
2022/10/02 07:54:35;;;;;;;8.68;4.75;;;;;;;37.08;18.66;98462.47;5044842;28;20411;-72
2022/10/02 07:57:03;;;;;;;6.55;5.35;;;;;;;37.05;16.94;98452.19;5041542;28;20056;-71
2022/10/02 07:59:30;;;;;;;11.43;4.38;;;;;;;36.67;19.36;98463.13;5027469;28;20496;-73
2022/10/02 08:01:55;;;;;;;4.00;3.33;;;;;;;36.92;17.42;98449.13;5057765;28;20103;-73
2022/10/02 08:04:29;;;;;;;4.40;3.55;;;;;;;36.85;16.67;98456.09;5042849;28;20029;-75
2022/10/02 08:07:00;;;;;;;7.28;3.13;;;;;;;36.90;17.63;98462.22;5027096;28;20183;-73
2022/10/02 08:09:44;;;;;;;2.40;1.92;;;;;;;36.92;17.64;98459.22;5027704;28;20029;-70
2022/10/02 08:12:19;;;;;;;5.25;2.00;;;;;;;36.86;16.71;98460.41;5042850;28;20427;-78
2022/10/02 08:14:44;;;;;;;7.63;5.20;;;;;;;36.97;15.80;98459.13;5059522;28;20020;-81
2022/10/02 08:17:37;;;;;;;3.42;2.38;;;;;;;36.99;17.33;98467.81;5027512;28;20083;-69
2022/10/02 08:20:06;;;;;;;3.05;2.30;;;;;;;36.97;17.22;98442.00;5060074;28;20055;-69
2022/10/02 08:22:37;;;;;;;4.15;1.60;;;;;;;36.91;16.14;98441.28;5043415;28;20107;-79
2022/10/02 08:25:12;;;;;;;3.35;1.25;;;;;;;36.90;16.36;98447.84;5025524;28;20055;-75
2022/10/02 08:27:47;;;;;;;3.35;2.17;;;;;;;36.83;17.02;98431.91;5026326;28;20451;-70
2022/10/02 08:30:13;;;;;;;3.80;1.63;;;;;;;36.60;16.45;98420.00;5060983;28;20043;-71
2022/10/02 08:32:39;;;;;;;4.93;1.70;;;;;;;36.44;17.19;98427.59;5038297;28;20534;-69
2022/10/02 08:35:11;;;;;;;1.83;0.77;;;;;;;36.45;16.44;98436.53;5058723;28;20028;-71
2022/10/02 08:37:46;;;;;;;15.00;5.22;;;;;;;36.32;16.34;98438.09;5044756;28;20090;-70
2022/10/02 08:40:32;;;;;;;4.47;1.52;;;;;;;36.32;16.36;98432.66;5058843;28;20566;-70
2022/10/02 08:43:07;;;;;;;3.08;1.80;;;;;;;36.22;15.47;98431.66;5059907;28;20082;-71
2022/10/02 08:46:01;;;;;;;6.35;1.60;;;;;;;36.35;16.78;98438.31;5060142;28;20025;-69
2022/10/02 08:49:04;;;;;;;2.58;1.58;;;;;;;36.42;16.74;98435.25;5063377;28;20415;-68
2022/10/02 08:52:00;;;;;;;3.58;1.67;;;;;;;36.38;15.65;98434.19;5056809;28;20089;-70
2022/10/02 08:54:50;;;;;;;3.28;2.63;;;;;;;36.09;16.09;98437.00;5058938;28;20026;-70
2022/10/02 08:58:01;;;;;;;1.98;0.90;;;;;;;36.37;15.45;98438.00;5060001;28;20048;-71
2022/10/02 09:01:02;;;;;;;2.25;1.10;;;;;;;36.41;14.92;98430.91;5057994;28;20078;-69
2022/10/02 09:03:46;;;;;;;4.60;0.98;;;;;;;36.56;15.18;98438.81;5058035;28;20036;-71
2022/10/02 09:06:23;;;;;;;2.45;1.33;;;;;;;36.72;15.79;98439.38;5047311;28;20032;-71
2022/10/02 09:09:06;;;;;;;2.20;1.10;;;;;;;36.75;15.52;98438.81;5059222;28;20029;-69
2022/10/02 09:12:10;;;;;;;3.60;1.75;;;;;;;36.86;16.49;98438.66;5021026;28;20033;-70
2022/10/02 09:14:47;;;;;;;2.08;1.00;;;;;;;36.80;14.42;98426.22;5056222;28;20112;-73
2022/10/02 09:17:34;;;;;;;3.38;1.05;;;;;;;36.82;15.96;98432.19;5042396;28;20045;-71
2022/10/02 09:20:18;;;;;;;3.00;0.50;;;;;;;36.53;13.19;98436.69;5039334;28;20033;-70
2022/10/02 09:22:59;;;;;;;2.80;0.60;;;;;;;36.26;15.18;98450.13;5056723;28;20040;-76
2022/10/02 09:25:43;;;;;;;5.38;0.55;;;;;;;36.21;15.55;98437.41;5020888;28;20048;-80
2022/10/02 09:28:30;;;;;;;2.95;1.02;;;;;;;35.95;16.58;98429.59;5041368;28;20550;-80
2022/10/02 09:30:57;;;;;;;;;;;;;;;35.93;14.63;98425.56;5046426;28;20124;-71
2022/10/02 09:33:34;;;;;;;2.80;0.80;;;;;;;36.13;15.07;98436.13;5063660;28;19995;-75
2022/10/02 09:36:11;;;;;;;5.40;0.70;;;;;;;35.95;13.96;98436.94;5062742;28;20041;-69
2022/10/02 09:39:14;;;;;;;2.83;0.68;;;;;;;35.75;15.42;98432.53;5061704;28;20021;-67
2022/10/02 09:42:05;;;;;;;7.03;0.43;;;;;;;35.80;14.05;98432.50;5062393;28;20874;-72
2022/10/02 09:44:57;;;;;;;1.80;0.40;;;;;;;35.54;13.30;98435.50;5062485;28;20060;-73
2022/10/02 09:48:03;;;;;;;2.95;0.55;;;;;;;35.68;14.53;98436.41;5061591;28;20389;-71
2022/10/02 09:50:53;;;;;;;2.05;0.40;;;;;;;35.48;14.42;98433.94;5063030;28;20025;-69
2022/10/02 09:53:40;;;;;;;6.82;0.68;;;;;;;35.62;15.37;98456.56;5062825;28;20361;-71
2022/10/02 09:56:36;;;;;;;2.47;0.60;;;;;;;35.65;15.85;98452.47;5062735;28;20033;-70
2022/10/02 09:59:26;;;;;;;4.55;0.47;;;;;;;35.24;15.11;98436.59;5059016;28;20044;-71
2022/10/02 10:02:11;;;;;;;1.45;0.30;;;;;;;34.79;14.90;98425.88;5060900;28;20045;-71
2022/10/02 10:04:52;;;;;;;1.95;0.43;;;;;;;35.04;15.49;98451.16;5048905;28;20064;-70
2022/10/02 10:07:36;;;;;;;3.72;0.38;;;;;;;35.06;15.13;98451.69;5062510;28;20036;-70
2022/10/02 10:10:21;;;;;;;4.07;0.50;;;;;;;34.92;15.55;98460.47;5062200;28;20040;-70
2022/10/02 10:13:20;;;;;;;2.97;0.40;;;;;;;34.80;15.82;98460.03;5061843;28;20086;-68
2022/10/02 10:16:27;;;;;;;7.55;0.73;;;;;;;34.48;15.25;98469.44;5061272;28;20084;-69
2022/10/02 10:19:21;;;;;;;6.13;0.60;;;;;;;34.49;15.17;98472.97;5063797;28;20051;-68
2022/10/02 10:22:01;;;;;;;2.42;0.40;;;;;;;34.26;15.52;98475.28;5058628;28;20029;-69
2022/10/02 10:24:48;;;;;;;1.77;0.30;;;;;;;33.75;15.76;98480.84;5061618;28;20032;-70
2022/10/02 10:27:28;;;;;;;3.67;0.30;;;;;;;33.43;16.16;98471.16;5043763;28;20090;-70
2022/10/02 10:30:32;;;;;;;3.30;0.60;;;;;;;33.47;17.54;98486.56;5060627;28;20036;-68
2022/10/02 10:33:16;;;;;;;6.50;0.65;;;;;;;33.54;18.13;98506.06;5038163;28;20045;-68
2022/10/02 10:35:46;;;;;;;3.10;0.40;;;;;;;33.49;17.49;98521.47;5046889;28;20045;-68
2022/10/02 10:38:32;;;;;;;3.92;0.60;;;;;;;33.31;19.06;98499.31;5022320;28;20056;-69
2022/10/02 10:41:23;;;;;;;3.10;1.10;;;;;;;33.17;18.33;98517.16;5048393;28;20492;-69
2022/10/02 10:43:50;;;;;;;2.60;0.90;;;;;;;33.08;18.63;98521.47;5009479;28;20037;-68
2022/10/02 10:46:43;;;;;;;4.40;0.80;;;;;;;32.98;18.53;98523.06;5023514;28;20560;-67
2022/10/02 10:49:29;;;;;;;2.40;0.60;;;;;;;32.84;19.93;98538.22;5012854;28;20115;-64
2022/10/02 10:52:14;;;;;;;4.28;0.77;;;;;;;32.72;17.37;98521.41;5040571;28;20145;-69
2022/10/02 10:55:07;;;;;;;12.55;0.68;;;;;;;32.56;19.14;98537.59;5024090;28;20035;-70
2022/10/02 10:57:57;;;;;;;5.10;0.43;;;;;;;32.48;19.45;98513.78;5039796;28;20540;-72
2022/10/02 11:00:31;;;;;;;6.55;0.60;;;;;;;32.56;19.43;98532.19;5038338;28;20520;-71
2022/10/02 11:03:03;;;;;;;3.38;0.57;;;;;;;32.57;20.14;98520.28;5042026;28;20053;-83
2022/10/02 11:06:01;;;;;;;8.45;0.43;;;;;;;32.41;20.06;98513.22;5039493;28;20041;-72
2022/10/02 11:08:57;;;;;;;8.40;0.60;;;;;;;32.33;20.39;98500.25;5060677;28;20074;-73
2022/10/02 11:11:47;;;;;;;1.90;0.40;;;;;;;32.28;20.07;98501.84;5063067;28;20029;-72
2022/10/02 11:14:27;;;;;;;4.15;0.82;;;;;;;32.23;20.08;98509.09;5062919;28;20028;-72
2022/10/02 11:17:21;;;;;;;2.50;0.70;;;;;;;32.10;20.50;98495.03;5061930;28;20048;-71
2022/10/02 11:19:52;;;;;;;4.25;0.50;;;;;;;31.99;20.93;98495.22;5062565;28;20124;-71
2022/10/02 11:22:36;;;;;;;1.90;0.40;;;;;;;31.86;20.62;98505.41;5061050;28;20021;-69
2022/10/02 11:25:14;;;;;;;4.95;0.35;;;;;;;31.72;20.95;98497.00;5061490;28;20154;-70
2022/10/02 11:28:01;;;;;;;5.88;0.60;;;;;;;31.60;20.68;98477.50;5061489;28;20026;-73
2022/10/02 11:30:45;;;;;;;4.43;0.40;;;;;;;31.35;20.64;98467.31;5062182;28;20024;-70
2022/10/02 11:33:37;;;;;;;2.63;0.40;;;;;;;31.19;21.03;98482.56;5061823;28;20131;-71
2022/10/02 11:36:44;;;;;;;3.58;0.38;;;;;;;30.95;21.71;98479.41;5062410;28;20052;-70
2022/10/02 11:39:47;;;;;;;2.92;0.50;;;;;;;30.81;21.83;98514.84;5061236;28;20051;-71
2022/10/02 11:42:35;;;;;;;2.17;0.57;;;;;;;30.63;21.39;98512.47;5043418;28;20025;-72
2022/10/02 11:45:22;;;;;;;2.22;0.60;;;;;;;30.46;21.91;98510.72;5039658;28;20102;-71
2022/10/02 11:48:10;;;;;;;2.72;0.40;;;;;;;30.35;21.81;98502.72;5043036;28;20452;-71
2022/10/02 11:50:36;;;;;;;4.47;0.60;;;;;;;30.23;22.13;98525.22;5043555;28;20026;-70
2022/10/02 11:53:40;;;;;;;2.45;0.75;;;;;;;30.13;22.23;98536.66;5044443;28;20024;-71
2022/10/02 11:56:21;;;;;;;2.25;0.60;;;;;;;30.01;22.77;98505.56;5032209;28;20547;-71
2022/10/02 11:58:52;;;;;;;4.18;0.70;;;;;;;29.90;22.96;98531.50;5042299;28;20476;-70
2022/10/02 12:01:32;;;;;;;3.00;0.50;;;;;;;29.88;23.12;98531.75;5060682;28;20103;-71
2022/10/02 12:04:02;;;;;;;4.53;1.00;;;;;;;29.83;23.27;98550.53;5046423;28;20027;-71
2022/10/02 12:06:34;;;;;;;4.53;0.73;;;;;;;29.75;22.86;98537.47;5045251;28;20091;-70
2022/10/02 12:09:25;;;;;;;3.25;0.50;;;;;;;29.64;22.78;98547.25;5042095;28;20091;-71
2022/10/02 12:11:56;;;;;;;1.30;0.50;;;;;;;29.57;22.87;98536.69;5026275;28;20136;-71
2022/10/02 12:14:41;;;;;;;4.95;0.40;;;;;;;29.48;22.88;98537.34;5045238;28;20033;-72
2022/10/02 12:17:47;;;;;;;4.25;0.40;;;;;;;29.44;22.71;98552.31;5060925;28;20048;-71
2022/10/02 12:28:42;;;;;;;7.37;0.37;;;;;;;29.16;22.74;98562.03;5057730;28;20373;-70
2022/10/02 12:31:26;;;;;;;2.30;0.45;;;;;;;29.13;23.09;98567.91;5043714;28;20025;-70
2022/10/02 12:34:03;;;;;;;3.40;0.60;;;;;;;29.11;23.12;98575.41;5042386;28;20160;-70
2022/10/02 12:36:40;;;;;;;3.97;0.40;;;;;;;29.03;23.24;98576.59;5025390;28;20148;-70
2022/10/02 12:39:30;;;;;;;8.80;0.40;;;;;;;28.97;22.99;98575.72;5033339;28;20074;-71